Time;durP1;ratioP1;P1;durP2;ratioP2;P2;SDS_P1;SDS_P2;PMS_P1;PMS_P2;Temp;Humidity;BMP_temperature;BMP_pressure;BME280_temperature;BME280_humidity;BME280_pressure;Samples;Min_cycle;Max_cycle;Signal;HPM_P1;HPM_P2
2022/09/12 00:01:24;;;;;;;2.38;0.70;;;;;;;20.52;45.49;100841.84;5051242;28;20405;-65
2022/09/12 00:03:52;;;;;;;2.50;0.93;;;;;;;20.53;45.55;100840.78;5046064;28;20409;-65
2022/09/12 00:08:57;;;;;;;0.77;0.50;;;;;;;20.52;45.57;100836.44;5053951;28;20984;-64
2022/09/12 00:11:23;;;;;;;0.90;0.50;;;;;;;20.52;45.68;100827.56;5046209;28;20876;-64
2022/09/12 00:13:48;;;;;;;2.22;0.60;;;;;;;20.53;45.67;100832.72;5046499;28;20895;-64
2022/09/12 00:16:20;;;;;;;0.97;0.50;;;;;;;20.50;45.78;100835.06;5045814;28;20953;-64
2022/09/12 00:18:46;;;;;;;2.17;0.60;;;;;;;20.48;45.91;100832.59;5038299;28;20494;-64
2022/09/12 00:21:12;;;;;;;2.42;0.60;;;;;;;20.46;45.92;100831.19;5026480;28;20390;-64
2022/09/12 00:24:50;;;;;;;0.95;0.70;;;;;;;20.43;45.89;100835.97;5053271;27;20410;-65
2022/09/12 00:27:16;;;;;;;1.27;0.60;;;;;;;20.37;46.09;100836.09;5045888;28;20834;-64
2022/09/12 00:29:41;;;;;;;1.85;0.63;;;;;;;20.37;46.17;100833.41;5045997;28;20381;-64
2022/09/12 00:32:07;;;;;;;1.65;0.70;;;;;;;20.39;46.19;100831.28;5046001;28;20394;-64
2022/09/12 00:34:32;;;;;;;0.70;0.50;;;;;;;20.39;46.25;100834.00;5046192;28;20473;-64
2022/09/12 00:38:28;;;;;;;2.03;0.70;;;;;;;20.29;46.50;100831.03;5084396;27;20420;-64
2022/09/12 00:40:53;;;;;;;0.77;0.70;;;;;;;20.28;46.58;100832.09;5066219;28;20392;-64
2022/09/12 00:43:39;;;;;;;1.40;0.70;;;;;;;20.26;46.71;100832.34;5066421;28;20384;-64
2022/09/12 00:46:28;;;;;;;1.80;0.70;;;;;;;20.27;46.86;100838.53;5066162;28;20380;-64
2022/09/12 00:49:19;;;;;;;2.75;0.60;;;;;;;20.32;46.71;100833.28;5056583;28;20400;-64
2022/09/12 00:51:50;;;;;;;2.20;0.60;;;;;;;20.30;46.89;100827.31;5046295;28;20378;-64
2022/09/12 00:54:21;;;;;;;1.05;0.60;;;;;;;20.29;46.82;100842.63;5059843;28;20478;-64
2022/09/12 00:58:13;;;;;;;1.80;0.63;;;;;;;20.23;47.04;100835.47;5068756;27;20433;-64
2022/09/12 01:00:39;;;;;;;1.90;0.57;;;;;;;20.29;47.12;100847.19;5046673;28;20776;-64
2022/09/12 01:03:10;;;;;;;2.05;0.60;;;;;;;20.27;47.03;100843.91;5046157;28;20472;-65
2022/09/12 01:05:43;;;;;;;1.30;0.60;;;;;;;20.27;47.15;100843.91;5046464;28;20402;-64
2022/09/12 01:08:09;;;;;;;1.38;0.80;;;;;;;20.28;47.12;100850.94;5046134;28;20389;-64
2022/09/12 01:10:37;;;;;;;0.88;0.60;;;;;;;20.32;46.95;100850.25;5046043;28;20468;-64
2022/09/12 01:13:05;;;;;;;1.02;0.63;;;;;;;20.32;47.06;100844.84;5046008;28;20374;-64
2022/09/12 01:15:31;;;;;;;1.75;0.70;;;;;;;20.33;47.03;100846.50;5046098;28;20466;-64
2022/09/12 01:18:24;;;;;;;1.40;0.70;;;;;;;20.33;47.03;100848.34;5046050;28;20401;-64
2022/09/12 01:21:03;;;;;;;2.20;0.70;;;;;;;20.28;47.12;100840.19;5034245;28;20385;-64
2022/09/12 01:23:38;;;;;;;2.10;0.73;;;;;;;20.28;47.24;100845.56;5045486;28;20467;-65
2022/09/12 01:28:22;;;;;;;2.00;0.60;;;;;;;20.35;47.14;100838.19;5073740;27;20408;-64
2022/09/12 01:30:51;;;;;;;1.10;0.70;;;;;;;20.34;47.18;100841.94;5066125;28;20407;-65
2022/09/12 01:33:28;;;;;;;3.90;0.80;;;;;;;20.34;47.14;100831.16;5066064;28;20946;-64
2022/09/12 01:38:44;;;;;;;2.45;0.80;;;;;;;20.40;47.04;100827.53;5051876;28;20405;-64
2022/09/12 01:43:00;;;;;;;1.40;0.70;;;;;;;20.40;47.29;100827.53;5066025;27;20425;-65
2022/09/12 01:47:20;;;;;;;1.05;0.70;;;;;;;20.42;47.26;100822.75;5075677;27;20412;-65
2022/09/12 01:52:08;;;;;;;2.20;0.90;;;;;;;20.37;47.39;100814.56;5085276;27;20442;-64
2022/09/12 01:55:04;;;;;;;1.17;0.68;;;;;;;20.36;47.36;100819.09;5051797;28;20399;-64
2022/09/12 01:57:55;;;;;;;0.93;0.70;;;;;;;20.40;47.42;100822.16;5066193;28;20403;-64
2022/09/12 02:00:21;;;;;;;1.73;0.85;;;;;;;20.43;47.40;100824.38;5046305;28;20963;-64
2022/09/12 02:04:17;;;;;;;2.45;1.00;;;;;;;20.40;47.38;100823.00;5078044;27;20400;-64
2022/09/12 02:06:48;;;;;;;1.80;0.82;;;;;;;20.44;47.40;100812.56;5062050;28;20405;-64
2022/09/12 02:10:24;;;;;;;2.05;0.90;;;;;;;20.53;47.20;100830.03;5089445;27;2039614;-64
2022/09/12 02:13:02;;;;;;;1.40;0.90;;;;;;;20.52;47.14;100828.38;5148337;27;20900;-64
2022/09/12 02:19:21;;;;;;;3.55;1.05;;;;;;;20.44;47.51;100818.78;5066204;27;20409;-64
2022/09/12 02:22:36;;;;;;;2.08;0.98;;;;;;;20.44;47.47;100824.16;5048106;28;20407;-65
2022/09/12 02:25:06;;;;;;;1.85;1.20;;;;;;;20.42;47.68;100828.16;5026230;28;20399;-65
2022/09/12 02:27:42;;;;;;;2.40;1.10;;;;;;;20.40;47.69;100823.00;5033772;28;20483;-65
2022/09/12 02:30:09;;;;;;;1.52;1.00;;;;;;;20.38;47.80;100819.72;5031043;28;20387;-65
2022/09/12 02:35:07;;;;;;;1.67;0.80;;;;;;;20.29;47.97;100813.00;5047460;28;20938;-64
2022/09/12 02:37:54;;;;;;;0.90;0.80;;;;;;;20.26;48.09;100818.88;5026550;28;20406;-64
2022/09/12 02:40:21;;;;;;;3.13;0.90;;;;;;;20.22;48.30;100828.44;5025830;28;20761;-65
2022/09/12 02:42:47;;;;;;;2.00;0.90;;;;;;;20.19;48.49;100824.34;5026100;28;20376;-64
2022/09/12 02:45:14;;;;;;;1.48;1.13;;;;;;;20.18;48.62;100824.56;5026323;28;20399;-65
2022/09/12 02:49:57;;;;;;;3.85;1.70;;;;;;;20.18;48.85;100827.28;5065166;27;20407;-64
2022/09/12 02:52:24;;;;;;;1.38;1.20;;;;;;;20.17;48.59;100826.47;5045504;28;20404;-65
2022/09/12 02:54:50;;;;;;;1.87;1.60;;;;;;;20.18;48.81;100829.97;5045713;28;20384;-65
2022/09/12 02:57:19;;;;;;;1.95;1.10;;;;;;;20.12;49.01;100822.81;5046032;28;20440;-64
2022/09/12 02:59:45;;;;;;;1.47;1.10;;;;;;;20.10;48.91;100820.38;5046033;28;20386;-64
2022/09/12 03:02:35;;;;;;;1.63;1.08;;;;;;;20.07;49.08;100825.38;5045888;28;20412;-64
2022/09/12 03:05:34;;;;;;;1.63;1.10;;;;;;;20.03;49.19;100822.34;5046026;28;20444;-64
2022/09/12 03:10:36;;;;;;;3.22;1.10;;;;;;;19.93;49.29;100811.28;5067504;28;20404;-64
2022/09/12 03:13:37;;;;;;;2.80;1.20;;;;;;;19.96;49.53;100821.59;5066037;28;20541;-65
2022/09/12 03:16:12;;;;;;;1.80;1.10;;;;;;;19.93;49.64;100819.38;5065873;28;20905;-65
2022/09/12 03:18:37;;;;;;;1.80;1.10;;;;;;;19.92;49.58;100823.94;5065778;28;20809;-64
2022/09/12 03:21:18;;;;;;;4.13;1.20;;;;;;;19.92;49.58;100817.75;5066613;28;20430;-64
2022/09/12 03:23:59;;;;;;;3.25;1.30;;;;;;;19.94;49.57;100816.44;5064305;28;20978;-64
2022/09/12 03:26:31;;;;;;;2.97;1.50;;;;;;;19.95;49.67;100819.94;5066020;28;20458;-64
2022/09/12 03:28:59;;;;;;;3.67;1.20;;;;;;;19.94;49.79;100819.16;5065847;28;20473;-64
2022/09/12 03:31:24;;;;;;;1.60;1.45;;;;;;;19.96;49.85;100821.59;5066097;28;20425;-64
2022/09/12 03:34:18;;;;;;;2.20;1.25;;;;;;;19.98;49.82;100823.00;5091532;27;20400;-65
2022/09/12 03:36:44;;;;;;;3.40;1.60;;;;;;;19.96;49.69;100814.34;5066324;28;20909;-65
2022/09/12 03:40:16;;;;;;;2.45;1.45;;;;;;;19.99;49.71;100815.78;5056287;27;20405;-64
2022/09/12 03:42:42;;;;;;;1.50;1.20;;;;;;;19.98;49.76;100817.63;5046190;28;20455;-65
2022/09/12 03:45:09;;;;;;;1.27;1.10;;;;;;;19.96;49.79;100814.34;5046576;28;20688;-65
2022/09/12 03:47:35;;;;;;;2.10;1.30;;;;;;;19.96;49.65;100813.53;5045908;28;20820;-65
2022/09/12 03:50:01;;;;;;;2.40;1.20;;;;;;;19.92;49.78;100809.69;5046455;28;20918;-65
2022/09/12 03:52:26;;;;;;;1.60;1.50;;;;;;;19.93;49.74;100819.38;5046066;28;20377;-65
2022/09/12 03:54:52;;;;;;;4.20;1.50;;;;;;;19.90;49.76;100817.97;5045944;28;20914;-65
2022/09/12 03:57:17;;;;;;;1.70;1.30;;;;;;;19.94;49.96;100824.53;5045648;28;20497;-64
2022/09/12 03:59:43;;;;;;;3.60;1.58;;;;;;;19.83;49.76;100818.06;5045593;28;20444;-65
2022/09/12 04:02:11;;;;;;;1.83;1.43;;;;;;;19.91;49.65;100824.16;5038574;28;20397;-65
2022/09/12 04:04:37;;;;;;;3.65;1.70;;;;;;;19.92;49.77;100829.31;5040919;28;20838;-65
2022/09/12 04:07:02;;;;;;;3.72;1.58;;;;;;;19.95;49.74;100833.41;5042198;28;20382;-65
2022/09/12 04:09:28;;;;;;;2.67;1.30;;;;;;;19.93;49.90;100828.25;5039407;28;20389;-65
2022/09/12 04:11:53;;;;;;;3.80;1.48;;;;;;;19.97;49.73;100824.06;5042398;28;20386;-65
2022/09/12 04:14:19;;;;;;;2.83;1.57;;;;;;;20.11;49.59;100837.31;5042849;28;20417;-65
2022/09/12 04:16:44;;;;;;;3.10;1.60;;;;;;;20.01;49.65;100836.00;5038511;28;21129;-65
2022/09/12 04:21:31;;;;;;;2.20;1.70;;;;;;;20.13;49.57;100845.97;5083444;27;20960;-64
2022/09/12 04:23:56;;;;;;;3.17;2.30;;;;;;;20.18;49.52;100841.53;5065569;28;20396;-64
2022/09/12 04:26:22;;;;;;;3.43;2.00;;;;;;;20.32;49.44;100836.78;5065603;28;20463;-64
2022/09/12 04:28:53;;;;;;;2.58;1.80;;;;;;;20.60;48.79;100840.69;5072907;28;20407;-64
2022/09/12 04:31:22;;;;;;;2.25;1.67;;;;;;;20.94;48.04;100840.91;5066178;28;20380;-64
2022/09/12 04:33:53;;;;;;;1.67;1.45;;;;;;;21.23;47.22;100835.59;5065458;28;20387;-64
2022/09/12 04:36:19;;;;;;;4.15;1.50;;;;;;;21.56;46.48;100846.56;5066128;28;20439;-65
2022/09/12 04:40:52;;;;;;;4.25;1.60;;;;;;;21.88;45.54;100838.00;5041461;28;20491;-64
2022/09/12 04:43:17;;;;;;;2.20;1.70;;;;;;;22.09;45.27;100846.44;5025546;28;20809;-65
2022/09/12 04:45:43;;;;;;;2.60;1.50;;;;;;;22.44;44.50;100848.16;5027523;28;20384;-64
2022/09/12 04:48:08;;;;;;;2.83;1.60;;;;;;;22.71;43.90;100851.00;5023631;28;20387;-64
2022/09/12 04:50:33;;;;;;;2.70;1.47;;;;;;;22.95;43.15;100848.91;5023571;28;20402;-65
2022/09/12 04:52:59;;;;;;;2.05;1.50;;;;;;;23.13;42.64;100855.13;5023849;28;20935;-64
2022/09/12 04:55:25;;;;;;;5.60;1.40;;;;;;;23.32;42.39;100855.63;5024211;28;20865;-64
2022/09/12 04:57:51;;;;;;;1.47;1.33;;;;;;;23.52;41.88;100852.38;5024642;28;20797;-65
2022/09/12 05:00:16;;;;;;;3.10;1.60;;;;;;;23.70;41.35;100849.31;5024179;28;20415;-64
2022/09/12 05:02:43;;;;;;;4.20;2.03;;;;;;;23.84;40.77;100856.00;5022233;28;20400;-65
2022/09/12 05:05:08;;;;;;;3.50;2.05;;;;;;;24.02;40.89;100862.09;5023365;28;20494;-64
2022/09/12 05:07:34;;;;;;;4.13;1.70;;;;;;;24.24;40.38;100875.59;5023617;28;20386;-64
2022/09/12 05:09:59;;;;;;;2.10;1.52;;;;;;;24.39;39.82;100867.59;5021665;28;20761;-64
2022/09/12 05:12:26;;;;;;;6.43;2.20;;;;;;;24.72;39.40;100867.59;5023060;28;20387;-64
2022/09/12 05:14:52;;;;;;;3.22;1.80;;;;;;;25.02;38.73;100863.44;5024278;28;20411;-65
2022/09/12 05:17:17;;;;;;;2.30;1.57;;;;;;;25.27;38.22;100869.03;5022427;28;20418;-64
2022/09/12 05:19:43;;;;;;;4.05;1.63;;;;;;;25.35;38.19;100863.09;5022910;28;20430;-64
2022/09/12 05:22:09;;;;;;;4.40;1.70;;;;;;;25.49;37.78;100865.31;5023783;28;20387;-65
2022/09/12 05:24:34;;;;;;;3.70;1.83;;;;;;;25.62;37.74;100861.28;5023501;28;20387;-65
2022/09/12 05:27:02;;;;;;;2.03;1.58;;;;;;;25.84;37.27;100870.03;5023121;28;20404;-64
2022/09/12 05:29:27;;;;;;;4.50;1.50;;;;;;;26.12;36.62;100865.19;5023506;28;20401;-64
2022/09/12 05:31:53;;;;;;;3.58;1.70;;;;;;;26.35;36.13;100868.47;5024085;28;20971;-64
2022/09/12 05:34:19;;;;;;;3.40;1.70;;;;;;;26.78;35.75;100869.00;5023148;28;20450;-65
2022/09/12 05:36:44;;;;;;;1.67;1.45;;;;;;;27.13;35.03;100867.28;5023515;28;20403;-64
2022/09/12 05:39:10;;;;;;;1.95;1.50;;;;;;;27.52;34.63;100861.16;5029390;28;20434;-65
2022/09/12 05:41:35;;;;;;;3.00;1.50;;;;;;;27.97;33.49;100859.28;5039702;28;20386;-65
2022/09/12 05:44:05;;;;;;;4.97;1.63;;;;;;;28.32;33.18;100858.16;5044481;28;20393;-65
2022/09/12 05:46:38;;;;;;;4.05;1.80;;;;;;;28.82;32.29;100857.19;5043401;28;20776;-64
2022/09/12 05:49:07;;;;;;;5.82;1.90;;;;;;;29.23;31.82;100854.03;5041038;28;20382;-65
2022/09/12 05:51:36;;;;;;;3.85;1.60;;;;;;;29.60;31.02;100849.72;5035239;28;21709;-65
2022/09/12 05:54:04;;;;;;;4.40;1.50;;;;;;;30.08;30.21;100842.16;5031358;28;20999;-65
2022/09/12 05:56:33;;;;;;;5.38;1.40;;;;;;;30.43;30.01;100839.97;5027301;28;20447;-65
2022/09/12 05:59:03;;;;;;;2.85;1.20;;;;;;;30.86;29.34;100847.94;5029523;28;20501;-65
2022/09/12 06:01:30;;;;;;;2.90;1.40;;;;;;;31.38;28.43;100836.75;5025708;28;20385;-65
2022/09/12 06:03:59;;;;;;;5.53;2.00;;;;;;;31.82;27.75;100832.50;5026000;28;20978;-65
2022/09/12 06:06:26;;;;;;;2.25;1.35;;;;;;;32.24;27.34;100840.53;5025552;28;20891;-65
2022/09/12 06:08:55;;;;;;;3.13;1.90;;;;;;;32.66;26.77;100832.88;5029835;28;20389;-65
2022/09/12 06:11:24;;;;;;;3.10;1.73;;;;;;;33.05;26.16;100850.47;5010067;28;20966;-65
2022/09/12 06:13:51;;;;;;;2.00;1.60;;;;;;;33.24;25.78;100844.72;5029477;28;20386;-65
2022/09/12 06:16:20;;;;;;;1.80;1.48;;;;;;;33.55;25.25;100845.72;5029754;28;20795;-65
2022/09/12 06:19:52;;;;;;;2.90;1.50;;;;;;;34.22;24.40;100836.97;5028559;28;20406;-66
2022/09/12 06:22:18;;;;;;;3.90;1.70;;;;;;;34.93;23.47;100846.59;5007799;28;20463;-64
2022/09/12 06:24:43;;;;;;;6.47;1.50;;;;;;;35.54;22.63;100835.22;5006926;28;20389;-65
2022/09/12 06:27:09;;;;;;;3.03;1.75;;;;;;;36.49;21.64;100843.75;5014337;28;20826;-65
2022/09/12 06:29:34;;;;;;;3.00;1.55;;;;;;;37.57;20.10;100838.84;5005912;28;20895;-65
2022/09/12 06:32:00;;;;;;;2.80;1.70;;;;;;;38.43;19.30;100843.19;5015256;28;20392;-62
2022/09/12 06:34:26;;;;;;;2.80;1.67;;;;;;;39.29;18.52;100845.25;5008913;28;20401;-66
2022/09/12 06:36:51;;;;;;;4.50;1.50;;;;;;;39.89;17.73;100833.00;5008017;28;20496;-65
2022/09/12 06:39:19;;;;;;;6.03;1.80;;;;;;;40.96;16.69;100842.41;5006181;28;20435;-63
2022/09/12 06:41:45;;;;;;;4.15;2.10;;;;;;;41.63;16.08;100835.34;5009663;28;20497;-63
2022/09/12 06:44:21;;;;;;;5.20;2.30;;;;;;;41.48;15.92;100839.94;5006602;28;20495;-65
2022/09/12 06:46:47;;;;;;;3.70;1.80;;;;;;;42.29;15.18;100841.22;5008563;28;20483;-63
2022/09/12 06:49:13;;;;;;;2.53;1.80;;;;;;;43.09;14.63;100842.63;5009053;28;20479;-62
2022/09/12 06:51:40;;;;;;;6.28;2.05;;;;;;;43.89;13.79;100823.03;5023536;28;20913;-61
2022/09/12 06:54:06;;;;;;;2.85;1.70;;;;;;;43.99;13.85;100824.22;5008296;28;20397;-62
2022/09/12 06:56:32;;;;;;;3.42;1.50;;;;;;;44.66;12.93;100824.69;5006731;28;20398;-64
2022/09/12 06:58:58;;;;;;;3.30;1.70;;;;;;;45.09;12.80;100824.56;5006380;28;20483;-64
2022/09/12 07:01:29;;;;;;;3.75;2.00;;;;;;;45.40;12.51;100820.09;5006215;28;20420;-64
2022/09/12 07:03:58;;;;;;;5.22;1.70;;;;;;;45.53;12.49;100819.63;5007605;28;20393;-63
2022/09/12 07:06:30;;;;;;;3.83;1.92;;;;;;;44.82;13.24;100813.03;5008041;28;20412;-63
2022/09/12 07:09:00;;;;;;;3.40;1.80;;;;;;;43.83;14.00;100813.47;5005707;28;20894;-64
2022/09/12 07:11:32;;;;;;;3.30;2.15;;;;;;;42.35;14.79;100824.97;5006751;28;20397;-61
2022/09/12 07:14:00;;;;;;;2.70;2.15;;;;;;;40.53;16.18;100822.25;5006404;28;20447;-62
2022/09/12 07:16:25;;;;;;;3.00;2.00;;;;;;;39.19;17.12;100824.44;5011729;28;20391;-62
2022/09/12 07:18:53;;;;;;;2.85;2.08;;;;;;;38.38;17.79;100835.94;5006464;28;20437;-61
2022/09/12 07:21:19;;;;;;;2.80;2.00;;;;;;;37.68;18.26;100839.97;5007590;28;20389;-61
2022/09/12 07:23:44;;;;;;;3.58;2.28;;;;;;;37.05;18.87;100823.06;5008328;28;20381;-61
2022/09/12 07:26:12;;;;;;;3.42;2.50;;;;;;;36.58;19.45;100832.59;5008127;28;20397;-62
2022/09/12 07:28:38;;;;;;;4.30;2.30;;;;;;;35.99;20.07;100839.22;5021925;28;20396;-61
2022/09/12 07:31:12;;;;;;;3.03;2.25;;;;;;;35.50;20.58;100837.03;4996939;28;20386;-61
2022/09/12 07:33:38;;;;;;;2.38;2.20;;;;;;;35.19;20.94;100837.41;5018470;28;20385;-61
2022/09/12 07:36:11;;;;;;;4.38;2.70;;;;;;;34.73;21.15;100837.16;5012565;28;20434;-61
2022/09/12 07:38:37;;;;;;;6.18;2.33;;;;;;;34.33;21.61;100829.19;5011252;28;20463;-61
2022/09/12 07:41:20;;;;;;;4.60;2.30;;;;;;;33.70;22.31;100831.53;5012098;28;20456;-61
2022/09/12 07:43:46;;;;;;;4.60;2.63;;;;;;;33.04;23.30;100834.28;5008852;28;20932;-61
2022/09/12 07:46:13;;;;;;;5.80;2.80;;;;;;;32.87;23.91;100833.13;5012340;28;20402;-61
2022/09/12 07:48:39;;;;;;;3.10;2.53;;;;;;;32.53;24.08;100823.59;5014891;28;20866;-61
2022/09/12 07:51:07;;;;;;;5.23;2.70;;;;;;;32.61;24.10;100835.78;5012369;28;20438;-60
2022/09/12 07:53:35;;;;;;;4.63;2.97;;;;;;;32.41;24.70;100826.09;5011046;28;20877;-60
2022/09/12 07:56:02;;;;;;;2.88;2.20;;;;;;;32.09;24.72;100821.72;5011072;28;20388;-61
2022/09/12 07:58:29;;;;;;;3.33;2.95;;;;;;;31.68;24.79;100831.72;5007632;28;20422;-61
2022/09/12 08:01:11;;;;;;;7.35;2.47;;;;;;;31.37;25.47;100826.13;4991570;28;20389;-60
2022/09/12 08:03:38;;;;;;;5.97;2.67;;;;;;;31.35;25.51;100836.53;4995960;28;20390;-60
2022/09/12 08:06:10;;;;;;;3.35;2.20;;;;;;;31.08;25.42;100826.44;4995999;28;20438;-60
2022/09/12 08:08:51;;;;;;;4.78;2.20;;;;;;;30.60;25.82;100825.72;5042736;28;20818;-62
2022/09/12 08:11:19;;;;;;;2.65;1.90;;;;;;;30.58;25.92;100825.22;5040602;28;20401;-62
2022/09/12 08:13:45;;;;;;;2.60;2.00;;;;;;;30.53;25.92;100825.28;5042619;28;20436;-61
2022/09/12 08:16:14;;;;;;;3.80;2.30;;;;;;;30.71;25.77;100836.47;5044432;28;20385;-62
2022/09/12 08:18:40;;;;;;;3.05;2.05;;;;;;;30.56;25.86;100830.19;5044271;28;20399;-62
2022/09/12 08:24:00;;;;;;;2.90;2.10;;;;;;;30.17;26.19;100831.38;5032215;28;20407;-62
2022/09/12 08:26:26;;;;;;;4.75;1.95;;;;;;;30.04;26.47;100830.22;5025864;28;20399;-62
2022/09/12 08:28:52;;;;;;;2.90;2.00;;;;;;;30.13;26.39;100826.81;5025649;28;20391;-62
2022/09/12 08:31:19;;;;;;;3.03;2.63;;;;;;;30.13;26.25;100824.88;5025459;28;20426;-62
2022/09/12 08:33:45;;;;;;;4.10;1.92;;;;;;;30.04;26.44;100823.94;5024854;28;20388;-62
2022/09/12 08:36:13;;;;;;;5.75;2.50;;;;;;;29.74;26.77;100831.47;5025107;28;20387;-62
2022/09/12 08:38:41;;;;;;;5.03;2.28;;;;;;;29.63;26.80;100838.19;5025389;28;20410;-62
2022/09/12 08:41:29;;;;;;;4.35;2.13;;;;;;;29.67;26.85;100826.38;5025494;28;20779;-63
2022/09/12 08:44:23;;;;;;;3.63;1.98;;;;;;;29.61;27.04;100821.28;5025949;28;20396;-63
2022/09/12 08:47:12;;;;;;;2.47;2.00;;;;;;;29.62;27.28;100815.53;5018913;28;20399;-61
2022/09/12 08:49:59;;;;;;;5.07;1.90;;;;;;;29.46;27.46;100806.75;5012891;28;20401;-62
2022/09/12 08:52:51;;;;;;;2.22;1.77;;;;;;;29.50;27.65;100804.25;5020068;28;20387;-62
2022/09/12 08:55:30;;;;;;;3.30;1.90;;;;;;;29.41;27.87;100809.56;5019770;28;20890;-63
2022/09/12 08:57:58;;;;;;;3.83;2.00;;;;;;;29.41;27.77;100808.75;5019724;28;20404;-62
2022/09/12 09:00:49;;;;;;;3.30;1.88;;;;;;;29.31;27.76;100805.03;5021051;28;20383;-63
2022/09/12 09:03:28;;;;;;;3.00;1.80;;;;;;;29.14;28.06;100807.44;5015173;28;20509;-63
2022/09/12 09:06:07;;;;;;;5.43;2.00;;;;;;;29.01;28.48;100805.41;5022486;28;20994;-62
2022/09/12 09:08:44;;;;;;;4.33;1.87;;;;;;;28.94;27.84;100803.84;5014613;28;20390;-62
2022/09/12 09:12:01;;;;;;;3.67;2.20;;;;;;;28.88;27.86;100801.47;5022439;28;20392;-62
2022/09/12 09:17:43;;;;;;;4.70;2.53;;;;;;;28.76;28.26;100810.06;5042700;28;20762;-63
2022/09/12 09:20:30;;;;;;;2.78;2.38;;;;;;;28.70;27.95;100798.41;5023833;28;20402;-63
2022/09/12 09:24:09;;;;;;;3.10;2.85;;;;;;;28.64;28.36;100810.47;5076375;27;20830;-63
2022/09/12 09:26:59;;;;;;;3.97;3.05;;;;;;;28.31;28.64;100810.22;5082930;28;20497;-63
2022/09/12 09:29:50;;;;;;;4.53;2.60;;;;;;;28.29;28.89;100815.16;5075307;28;20374;-62
2022/09/12 09:32:30;;;;;;;3.80;3.20;;;;;;;28.22;28.95;100810.03;5075466;28;20398;-62
2022/09/12 09:35:47;;;;;;;3.10;2.75;;;;;;;28.28;28.92;100816.22;5066399;27;20907;-62
2022/09/12 09:38:23;;;;;;;4.70;3.00;;;;;;;28.36;28.96;100812.06;5058338;28;20428;-62
2022/09/12 09:41:00;;;;;;;3.15;2.85;;;;;;;28.28;29.35;100808.06;5063540;28;20387;-62
2022/09/12 09:45:18;;;;;;;3.60;3.30;;;;;;;28.19;29.17;100796.94;5097998;27;20459;-63
2022/09/12 09:47:48;;;;;;;3.85;3.35;;;;;;;28.16;29.46;100804.88;5084598;28;20406;-62
2022/09/12 09:50:15;;;;;;;3.72;3.28;;;;;;;28.16;29.37;100803.00;5066159;28;20408;-63
2022/09/12 09:52:41;;;;;;;5.65;3.60;;;;;;;28.09;29.72;100813.41;5065840;28;20380;-63
2022/09/12 09:56:34;;;;;;;4.40;3.35;;;;;;;27.88;29.72;100801.03;5055746;28;20516;-62
2022/09/12 09:59:24;;;;;;;3.40;3.03;;;;;;;27.76;29.75;100807.63;5045981;28;20425;-63
2022/09/12 10:02:02;;;;;;;3.90;2.80;;;;;;;27.55;29.26;100806.97;5046224;28;20396;-62
2022/09/12 10:06:24;;;;;;;4.90;3.30;;;;;;;27.46;29.92;100812.19;5060625;28;20464;-63
2022/09/12 10:08:49;;;;;;;3.85;2.97;;;;;;;27.50;29.85;100801.53;5026675;28;20403;-62
2022/09/12 10:11:15;;;;;;;4.10;3.33;;;;;;;27.56;30.00;100803.13;5026933;28;20974;-63
2022/09/12 10:13:50;;;;;;;3.30;3.00;;;;;;;27.52;30.09;100798.53;5046201;28;20469;-62
2022/09/12 10:16:30;;;;;;;3.03;2.83;;;;;;;27.43;30.44;100799.13;5046326;28;20500;-63
2022/09/12 10:19:01;;;;;;;4.70;2.95;;;;;;;27.41;30.25;100811.41;5046138;28;20386;-62
2022/09/12 10:21:50;;;;;;;4.20;2.72;;;;;;;27.48;30.21;100795.56;5046157;28;20380;-62
2022/09/12 10:24:42;;;;;;;4.30;2.37;;;;;;;27.28;30.44;100801.94;5046097;28;20413;-62
2022/09/12 10:27:10;;;;;;;2.45;2.22;;;;;;;27.24;30.57;100811.72;5031870;28;20390;-62
2022/09/12 10:30:14;;;;;;;5.07;2.08;;;;;;;27.28;30.42;100807.38;5093520;27;20402;-62
2022/09/12 10:32:43;;;;;;;3.47;1.60;;;;;;;27.27;30.43;100812.00;5074299;28;20433;-63
2022/09/12 10:35:21;;;;;;;2.90;1.50;;;;;;;27.27;30.15;100809.28;5085981;28;20784;-62
2022/09/12 10:37:52;;;;;;;3.90;1.55;;;;;;;27.30;30.21;100810.63;5086232;28;20828;-63
2022/09/12 10:40:30;;;;;;;3.10;1.40;;;;;;;27.35;30.48;100796.16;5085426;28;20478;-62
2022/09/12 10:42:58;;;;;;;7.18;1.70;;;;;;;27.30;30.20;100786.13;5074004;28;20386;-62
2022/09/12 10:45:36;;;;;;;2.57;1.40;;;;;;;27.06;30.16;100785.94;5071933;28;20412;-62
2022/09/12 10:48:25;;;;;;;3.05;1.38;;;;;;;26.96;30.45;100794.97;5086210;28;20418;-62
2022/09/12 10:50:51;;;;;;;2.67;1.20;;;;;;;26.94;30.34;100789.00;5081340;28;20955;-62
2022/09/12 10:53:24;;;;;;;3.43;1.20;;;;;;;26.96;30.56;100803.13;5075622;28;20409;-62
2022/09/12 10:56:04;;;;;;;1.73;1.20;;;;;;;26.98;30.55;100795.50;5085611;28;20409;-63
2022/09/12 10:58:41;;;;;;;4.03;1.40;;;;;;;27.01;30.29;100791.41;5079429;28;20398;-63
2022/09/12 11:01:28;;;;;;;4.32;1.27;;;;;;;26.92;30.50;100788.47;5079906;28;20393;-62
2022/09/12 11:04:15;;;;;;;2.90;1.10;;;;;;;26.84;30.63;100789.81;5065482;28;20862;-62
2022/09/12 11:06:49;;;;;;;3.20;1.30;;;;;;;26.94;30.38;100793.59;5069233;28;20394;-62
2022/09/12 11:09:31;;;;;;;4.55;1.30;;;;;;;26.91;30.06;100803.16;5085609;28;20410;-63
2022/09/12 11:12:32;;;;;;;3.03;1.30;;;;;;;26.88;29.64;100800.97;5065736;28;20774;-63
2022/09/12 11:15:34;;;;;;;1.98;1.13;;;;;;;26.92;29.92;100793.06;5055985;28;20410;-62
2022/09/12 11:18:29;;;;;;;4.05;1.30;;;;;;;26.86;30.30;100797.72;5065797;28;20388;-63
2022/09/12 11:21:08;;;;;;;2.60;1.02;;;;;;;26.82;30.50;100799.38;5074399;28;20428;-63
2022/09/12 11:23:58;;;;;;;1.95;1.30;;;;;;;26.74;30.57;100787.16;5071095;28;20403;-63
2022/09/12 11:26:33;;;;;;;3.33;1.30;;;;;;;26.73;29.92;100795.59;5085677;28;20416;-62
2022/09/12 11:29:20;;;;;;;3.25;1.30;;;;;;;26.65;29.90;100799.66;5065306;28;20817;-62
2022/09/12 11:32:12;;;;;;;7.43;1.50;;;;;;;26.82;30.55;100802.91;5065139;28;20381;-62
2022/09/12 11:35:19;;;;;;;2.90;1.60;;;;;;;26.87;30.41;100793.91;5075317;28;20585;-62
2022/09/12 11:38:55;;;;;;;2.35;1.10;;;;;;;26.79;30.06;100800.72;5059769;28;20405;-62
2022/09/12 11:41:27;;;;;;;2.47;1.25;;;;;;;26.69;29.76;100782.53;5035319;28;20398;-60
2022/09/12 11:44:06;;;;;;;2.60;1.30;;;;;;;26.77;29.81;100774.91;5045960;28;20386;-63
2022/09/12 11:46:44;;;;;;;3.80;1.17;;;;;;;26.76;29.88;100778.69;5045953;28;20381;-63
2022/09/12 11:49:15;;;;;;;2.10;1.40;;;;;;;26.68;29.82;100791.78;5046239;28;20741;-62
2022/09/12 11:51:52;;;;;;;4.88;1.85;;;;;;;26.61;30.49;100801.31;5046073;28;20386;-62
2022/09/12 11:54:35;;;;;;;3.47;1.70;;;;;;;26.52;30.63;100784.72;5045798;28;20431;-62
2022/09/12 11:57:25;;;;;;;5.55;1.60;;;;;;;26.54;30.00;100795.31;5045720;28;20437;-62
2022/09/12 12:01:58;;;;;;;3.90;1.70;;;;;;;26.50;30.12;100785.00;5099064;27;20827;-63
2022/09/12 12:04:31;;;;;;;2.20;1.55;;;;;;;26.44;30.13;100769.78;5086625;28;20882;-62
2022/09/12 12:07:06;;;;;;;3.20;1.90;;;;;;;26.46;30.34;100770.31;5086247;28;20375;-62
2022/09/12 12:09:33;;;;;;;2.60;2.10;;;;;;;26.44;30.78;100777.94;5086514;28;20391;-62
2022/09/12 12:12:06;;;;;;;5.68;2.38;;;;;;;26.44;30.59;100769.00;5086253;28;20371;-62
2022/09/12 12:14:44;;;;;;;5.45;2.40;;;;;;;26.48;30.89;100760.00;5086533;28;20414;-61
2022/09/12 12:17:19;;;;;;;4.38;1.85;;;;;;;26.50;30.71;100781.47;5058430;28;20470;-62
2022/09/12 12:22:20;;;;;;;2.80;2.50;;;;;;;26.52;31.15;100761.09;5075967;27;2177992;-62
2022/09/12 12:25:25;;;;;;;2.88;2.40;;;;;;;26.48;30.64;100781.72;5134939;27;20395;-62
2022/09/12 12:28:00;;;;;;;8.10;2.95;;;;;;;26.33;30.68;100769.00;5136752;27;20389;-62
2022/09/12 12:30:29;;;;;;;4.60;2.80;;;;;;;26.26;31.00;100775.81;5144453;27;20383;-62
2022/09/12 12:33:09;;;;;;;6.13;2.90;;;;;;;26.18;30.93;100781.78;5127510;28;20732;-62
2022/09/12 12:35:38;;;;;;;5.35;2.63;;;;;;;26.21;30.98;100782.06;5127452;28;20948;-63
2022/09/12 12:38:26;;;;;;;4.10;2.67;;;;;;;26.28;30.57;100779.88;5127377;28;20375;-62
2022/09/12 12:40:52;;;;;;;6.97;2.25;;;;;;;26.25;30.77;100779.59;5127043;28;20421;-62
2022/09/12 12:43:31;;;;;;;3.60;2.40;;;;;;;26.18;30.77;100757.31;5127246;28;20880;-63
2022/09/12 12:46:04;;;;;;;4.33;2.80;;;;;;;26.19;30.70;100780.72;5127171;28;20382;-63